Istanbul Sabiha Gökçen International Airport

LTFJ · 伊斯坦布尔, 土耳其

罗盘
风向 的 风向 的 风向 到 风向 240° Istanbul Sabiha Gökçen International Airport 6L/24R
风: 8 kt, 3 beaufort

8 kt

1 kt
改变
0 ft 1.000 2.000 3.000 4.000 5.000
CAVOK
METAR LTFJ 240850Z 24008KT 100V260 CAVOK 18/06 Q1021 NOSIG

METAR Istanbul Sabiha Gökçen International Airport - LTFJ/SAW

Istanbul Sabiha Gökçen International Airport是,土耳其中的大型机场。 该机场位于纬度40,89512和经度29,31347。 该机场有2条跑道: 6L/24R 和 6R/24L. 本场的ICAO机场代码为LTFJ。 该机场的IATA代码为SAW。 机场在Istanbul FIR中。

该航空气象观测是针对Istanbul Sabiha Gökçen International Airport在2024年2月24日 11:50, 当地时间进行的。

机场观察

风向为240°,速度为8 kt。 风向在100°和260°之间变化。

天气为CAVOK。这意味着在5.000 ft或MSA(最低安全高度)以下(以较高者为准)以下没有云。这也意味着没有观测到积雨云或高耸的积云,可见度为10 km 或者更多或更高。此外,不会有雾,降雨或其他重要天气。

温度和风寒是18 °C。 露点为6 °C,相对湿度为46%。 海平面上的气压为1021 hPa (QNH)。

白天

今天,太阳从07:44升起,在18:47降落。 这适用于Istanbul Sabiha Gökçen International Airport,世界夏令时可能有所不同。 当地时间与世界标准时间之间的时差为+3 小时。 当前,没有夏令时有效。

公司介绍

本场上唯一已知的公司是Pegasus Airlines。

体会

到Vliegles.nl去找飞行课程,跳伞和其他飞行体验。 浏览页面,了解Istanbul Sabiha Gökçen International Airport附近所有可用的活动。 你也可以使用搜索功能来寻找你所在地附近的特定飞行课程、跳伞或其他飞行体验。

跑道

Id 标题 侧风 逆风 侧风 %
6L/24R 064°-244° 8 kt 7 %
6R/24L 064°-244° 8 kt 7 %

逆风成分最大的方向会被突出显示,并用于横风计算。 这并不一定意味着这个方向在使用。

温度 & 天气

温度 18 °C
露点 6 °C
相对湿度 46%
Kp-index 0 (0-9)

白天

日出
07:44
中午
13:16
日落
18:47 (6:32)

小工具

你想在你的网站上有一个关于Istanbul Sabiha Gökçen International Airport的当前航空天气(METAR)的小部件吗?

显示HTML代码
?>